sensor_id;sensor_type;location;lat;lon;timestamp;P1;durP1;ratioP1;P2;durP2;ratioP2
75700;SDS011;64321;48.796;44.740;2023-07-13T00:04:07;4.32;;;1.42;;
75700;SDS011;64321;48.796;44.740;2023-07-13T00:09:09;2.47;;;1.17;;
75700;SDS011;64321;48.796;44.740;2023-07-13T00:14:11;2.80;;;1.23;;
75700;SDS011;64321;48.796;44.740;2023-07-13T00:19:14;2.45;;;1.02;;
75700;SDS011;64321;48.796;44.740;2023-07-13T00:24:17;2.40;;;0.93;;
75700;SDS011;64321;48.796;44.740;2023-07-13T00:29:26;2.88;;;1.13;;
75700;SDS011;64321;48.796;44.740;2023-07-13T00:34:28;3.08;;;1.55;;
75700;SDS011;64321;48.796;44.740;2023-07-13T00:39:30;2.28;;;1.05;;
75700;SDS011;64321;48.796;44.740;2023-07-13T00:44:32;3.40;;;1.10;;
75700;SDS011;64321;48.796;44.740;2023-07-13T00:49:35;4.55;;;1.42;;
75700;SDS011;64321;48.796;44.740;2023-07-13T00:54:41;4.28;;;1.23;;
75700;SDS011;64321;48.796;44.740;2023-07-13T00:59:47;3.47;;;1.08;;
75700;SDS011;64321;48.796;44.740;2023-07-13T01:04:50;2.50;;;1.10;;
75700;SDS011;64321;48.796;44.740;2023-07-13T01:09:53;2.55;;;1.25;;
75700;SDS011;64321;48.796;44.740;2023-07-13T01:14:58;2.17;;;1.00;;
75700;SDS011;64321;48.796;44.740;2023-07-13T01:20:05;2.72;;;1.00;;
75700;SDS011;64321;48.796;44.740;2023-07-13T01:25:08;4.00;;;1.80;;
75700;SDS011;64321;48.796;44.740;2023-07-13T01:30:10;2.83;;;1.38;;
75700;SDS011;64321;48.796;44.740;2023-07-13T01:35:12;3.95;;;1.77;;
75700;SDS011;64321;48.796;44.740;2023-07-13T01:40:14;3.83;;;1.17;;
75700;SDS011;64321;48.796;44.740;2023-07-13T01:45:17;3.50;;;1.10;;
75700;SDS011;64321;48.796;44.740;2023-07-13T01:50:19;2.50;;;0.95;;
75700;SDS011;64321;48.796;44.740;2023-07-13T01:55:21;2.72;;;1.27;;
75700;SDS011;64321;48.796;44.740;2023-07-13T02:00:23;2.40;;;1.00;;
75700;SDS011;64321;48.796;44.740;2023-07-13T02:05:26;1.90;;;0.80;;
75700;SDS011;64321;48.796;44.740;2023-07-13T02:10:28;4.22;;;1.23;;
75700;SDS011;64321;48.796;44.740;2023-07-13T02:15:30;5.10;;;1.40;;
75700;SDS011;64321;48.796;44.740;2023-07-13T02:20:33;3.53;;;1.48;;
75700;SDS011;64321;48.796;44.740;2023-07-13T02:25:35;6.13;;;1.98;;
75700;SDS011;64321;48.796;44.740;2023-07-13T02:30:37;5.10;;;1.90;;
75700;SDS011;64321;48.796;44.740;2023-07-13T02:35:40;5.05;;;1.50;;
75700;SDS011;64321;48.796;44.740;2023-07-13T02:40:42;3.03;;;1.35;;
75700;SDS011;64321;48.796;44.740;2023-07-13T02:45:45;5.75;;;1.90;;
75700;SDS011;64321;48.796;44.740;2023-07-13T02:50:47;7.43;;;2.15;;
75700;SDS011;64321;48.796;44.740;2023-07-13T02:55:49;3.67;;;1.50;;
75700;SDS011;64321;48.796;44.740;2023-07-13T03:00:51;4.72;;;1.92;;
75700;SDS011;64321;48.796;44.740;2023-07-13T03:05:58;5.10;;;1.70;;
75700;SDS011;64321;48.796;44.740;2023-07-13T03:11:07;3.17;;;1.75;;
75700;SDS011;64321;48.796;44.740;2023-07-13T03:16:13;5.90;;;1.83;;
75700;SDS011;64321;48.796;44.740;2023-07-13T03:21:22;4.55;;;2.05;;
75700;SDS011;64321;48.796;44.740;2023-07-13T03:26:25;4.45;;;2.03;;
75700;SDS011;64321;48.796;44.740;2023-07-13T03:31:30;6.35;;;3.30;;
75700;SDS011;64321;48.796;44.740;2023-07-13T03:36:32;4.05;;;1.80;;
75700;SDS011;64321;48.796;44.740;2023-07-13T03:41:39;4.88;;;2.00;;
75700;SDS011;64321;48.796;44.740;2023-07-13T03:46:41;5.75;;;1.55;;
75700;SDS011;64321;48.796;44.740;2023-07-13T03:51:45;2.45;;;1.23;;
75700;SDS011;64321;48.796;44.740;2023-07-13T03:56:47;5.40;;;1.58;;
75700;SDS011;64321;48.796;44.740;2023-07-13T04:01:51;2.65;;;1.30;;
75700;SDS011;64321;48.796;44.740;2023-07-13T04:06:53;3.17;;;1.38;;
75700;SDS011;64321;48.796;44.740;2023-07-13T04:11:55;3.88;;;2.15;;
75700;SDS011;64321;48.796;44.740;2023-07-13T04:16:57;3.28;;;1.35;;
75700;SDS011;64321;48.796;44.740;2023-07-13T04:21:59;3.38;;;1.40;;
75700;SDS011;64321;48.796;44.740;2023-07-13T04:27:01;2.78;;;1.20;;
75700;SDS011;64321;48.796;44.740;2023-07-13T04:32:04;2.33;;;1.27;;
75700;SDS011;64321;48.796;44.740;2023-07-13T04:37:07;2.38;;;1.35;;
75700;SDS011;64321;48.796;44.740;2023-07-13T04:42:09;3.15;;;1.20;;
75700;SDS011;64321;48.796;44.740;2023-07-13T04:47:11;2.95;;;1.10;;
75700;SDS011;64321;48.796;44.740;2023-07-13T04:52:14;3.83;;;1.23;;
75700;SDS011;64321;48.796;44.740;2023-07-13T04:57:16;2.88;;;1.30;;
75700;SDS011;64321;48.796;44.740;2023-07-13T05:02:18;5.57;;;1.23;;
75700;SDS011;64321;48.796;44.740;2023-07-13T05:07:22;2.95;;;1.65;;
75700;SDS011;64321;48.796;44.740;2023-07-13T05:12:24;5.85;;;1.50;;
75700;SDS011;64321;48.796;44.740;2023-07-13T05:17:26;2.75;;;1.00;;
75700;SDS011;64321;48.796;44.740;2023-07-13T05:22:29;2.67;;;1.35;;
75700;SDS011;64321;48.796;44.740;2023-07-13T05:27:31;3.65;;;1.10;;
75700;SDS011;64321;48.796;44.740;2023-07-13T05:32:33;3.75;;;0.98;;
75700;SDS011;64321;48.796;44.740;2023-07-13T05:37:36;2.42;;;0.98;;
75700;SDS011;64321;48.796;44.740;2023-07-13T05:42:38;2.50;;;1.13;;
75700;SDS011;64321;48.796;44.740;2023-07-13T05:47:40;2.20;;;0.85;;
75700;SDS011;64321;48.796;44.740;2023-07-13T05:52:43;3.13;;;0.90;;
75700;SDS011;64321;48.796;44.740;2023-07-13T05:57:45;4.15;;;1.13;;
75700;SDS011;64321;48.796;44.740;2023-07-13T06:02:47;1.92;;;1.10;;
75700;SDS011;64321;48.796;44.740;2023-07-13T06:07:49;3.85;;;0.95;;
75700;SDS011;64321;48.796;44.740;2023-07-13T06:12:51;3.63;;;1.17;;
75700;SDS011;64321;48.796;44.740;2023-07-13T06:17:54;4.90;;;1.00;;
75700;SDS011;64321;48.796;44.740;2023-07-13T06:22:56;2.05;;;0.88;;
75700;SDS011;64321;48.796;44.740;2023-07-13T06:27:58;2.10;;;0.93;;
75700;SDS011;64321;48.796;44.740;2023-07-13T06:33:00;2.88;;;1.35;;
75700;SDS011;64321;48.796;44.740;2023-07-13T06:38:03;2.40;;;1.27;;
75700;SDS011;64321;48.796;44.740;2023-07-13T06:43:05;2.25;;;1.27;;
75700;SDS011;64321;48.796;44.740;2023-07-13T06:48:07;3.22;;;1.25;;
75700;SDS011;64321;48.796;44.740;2023-07-13T06:53:10;3.42;;;0.90;;
75700;SDS011;64321;48.796;44.740;2023-07-13T06:58:12;2.08;;;0.88;;
75700;SDS011;64321;48.796;44.740;2023-07-13T07:03:14;3.38;;;1.20;;
75700;SDS011;64321;48.796;44.740;2023-07-13T07:08:17;2.30;;;1.33;;
75700;SDS011;64321;48.796;44.740;2023-07-13T07:13:19;2.38;;;0.65;;
75700;SDS011;64321;48.796;44.740;2023-07-13T07:18:21;3.65;;;1.20;;
75700;SDS011;64321;48.796;44.740;2023-07-13T07:23:24;2.47;;;0.77;;
75700;SDS011;64321;48.796;44.740;2023-07-13T07:28:26;3.33;;;1.08;;
75700;SDS011;64321;48.796;44.740;2023-07-13T07:33:43;2.33;;;0.77;;
75700;SDS011;64321;48.796;44.740;2023-07-13T07:38:45;3.38;;;1.08;;
75700;SDS011;64321;48.796;44.740;2023-07-13T07:43:47;2.65;;;0.95;;
75700;SDS011;64321;48.796;44.740;2023-07-13T07:48:50;3.05;;;0.85;;
75700;SDS011;64321;48.796;44.740;2023-07-13T07:53:52;2.08;;;0.63;;
75700;SDS011;64321;48.796;44.740;2023-07-13T07:58:54;1.55;;;0.57;;
75700;SDS011;64321;48.796;44.740;2023-07-13T08:03:59;2.65;;;0.80;;
75700;SDS011;64321;48.796;44.740;2023-07-13T08:09:04;1.85;;;0.63;;
75700;SDS011;64321;48.796;44.740;2023-07-13T08:14:06;2.72;;;0.70;;
75700;SDS011;64321;48.796;44.740;2023-07-13T08:19:09;3.92;;;0.77;;
75700;SDS011;64321;48.796;44.740;2023-07-13T08:24:11;3.42;;;0.80;;
75700;SDS011;64321;48.796;44.740;2023-07-13T08:29:13;3.70;;;1.08;;
75700;SDS011;64321;48.796;44.740;2023-07-13T08:34:15;1.25;;;0.60;;
75700;SDS011;64321;48.796;44.740;2023-07-13T08:39:18;6.18;;;0.73;;
75700;SDS011;64321;48.796;44.740;2023-07-13T08:44:26;1.75;;;0.45;;
75700;SDS011;64321;48.796;44.740;2023-07-13T08:49:30;3.25;;;1.30;;
75700;SDS011;64321;48.796;44.740;2023-07-13T08:54:37;2.30;;;0.50;;
75700;SDS011;64321;48.796;44.740;2023-07-13T08:59:40;1.48;;;0.52;;
75700;SDS011;64321;48.796;44.740;2023-07-13T09:15:26;2.17;;;0.77;;
75700;SDS011;64321;48.796;44.740;2023-07-13T09:20:34;2.97;;;1.05;;
75700;SDS011;64321;48.796;44.740;2023-07-13T09:25:37;3.47;;;0.90;;
75700;SDS011;64321;48.796;44.740;2023-07-13T09:30:51;3.97;;;0.70;;
75700;SDS011;64321;48.796;44.740;2023-07-13T09:35:55;5.07;;;1.00;;
75700;SDS011;64321;48.796;44.740;2023-07-13T09:46:19;4.05;;;0.43;;
75700;SDS011;64321;48.796;44.740;2023-07-13T09:51:22;1.60;;;0.55;;
75700;SDS011;64321;48.796;44.740;2023-07-13T09:56:28;1.55;;;0.50;;
75700;SDS011;64321;48.796;44.740;2023-07-13T10:01:37;4.93;;;0.50;;
75700;SDS011;64321;48.796;44.740;2023-07-13T10:06:40;1.60;;;0.52;;
75700;SDS011;64321;48.796;44.740;2023-07-13T10:11:45;4.13;;;0.70;;
75700;SDS011;64321;48.796;44.740;2023-07-13T10:16:47;3.20;;;0.43;;
75700;SDS011;64321;48.796;44.740;2023-07-13T10:27:29;1.30;;;0.50;;
75700;SDS011;64321;48.796;44.740;2023-07-13T10:32:23;2.10;;;1.10;;
75700;SDS011;64321;48.796;44.740;2023-07-13T10:37:27;1.23;;;0.52;;
75700;SDS011;64321;48.796;44.740;2023-07-13T10:42:36;3.92;;;0.63;;
75700;SDS011;64321;48.796;44.740;2023-07-13T10:47:39;1.30;;;0.68;;
75700;SDS011;64321;48.796;44.740;2023-07-13T10:52:46;1.38;;;0.50;;
75700;SDS011;64321;48.796;44.740;2023-07-13T10:57:48;1.70;;;0.60;;
75700;SDS011;64321;48.796;44.740;2023-07-13T11:03:00;2.97;;;0.52;;
75700;SDS011;64321;48.796;44.740;2023-07-13T11:08:50;3.90;;;1.33;;
75700;SDS011;64321;48.796;44.740;2023-07-13T11:13:39;0.98;;;0.47;;
75700;SDS011;64321;48.796;44.740;2023-07-13T11:24:14;2.28;;;0.38;;
75700;SDS011;64321;48.796;44.740;2023-07-13T11:34:38;3.45;;;0.82;;
75700;SDS011;64321;48.796;44.740;2023-07-13T11:39:41;3.30;;;0.57;;
75700;SDS011;64321;48.796;44.740;2023-07-13T11:44:49;2.33;;;0.75;;
75700;SDS011;64321;48.796;44.740;2023-07-13T11:50:20;2.72;;;0.63;;
75700;SDS011;64321;48.796;44.740;2023-07-13T11:55:23;2.28;;;0.60;;
75700;SDS011;64321;48.796;44.740;2023-07-13T12:00:30;2.85;;;0.65;;
75700;SDS011;64321;48.796;44.740;2023-07-13T12:05:35;2.00;;;0.85;;
75700;SDS011;64321;48.796;44.740;2023-07-13T12:10:38;3.15;;;0.90;;
75700;SDS011;64321;48.796;44.740;2023-07-13T12:15:41;6.20;;;0.82;;
75700;SDS011;64321;48.796;44.740;2023-07-13T12:20:45;1.00;;;0.70;;
75700;SDS011;64321;48.796;44.740;2023-07-13T12:25:47;3.00;;;0.80;;
75700;SDS011;64321;48.796;44.740;2023-07-13T12:30:49;2.03;;;0.65;;
75700;SDS011;64321;48.796;44.740;2023-07-13T12:36:00;1.73;;;0.85;;
75700;SDS011;64321;48.796;44.740;2023-07-13T12:41:03;1.65;;;1.15;;
75700;SDS011;64321;48.796;44.740;2023-07-13T12:51:21;2.38;;;0.63;;
75700;SDS011;64321;48.796;44.740;2023-07-13T12:56:24;1.83;;;0.52;;
75700;SDS011;64321;48.796;44.740;2023-07-13T13:01:28;7.20;;;0.93;;
75700;SDS011;64321;48.796;44.740;2023-07-13T13:06:31;4.78;;;0.73;;
75700;SDS011;64321;48.796;44.740;2023-07-13T13:11:33;2.28;;;0.65;;
75700;SDS011;64321;48.796;44.740;2023-07-13T13:16:49;1.73;;;0.75;;
75700;SDS011;64321;48.796;44.740;2023-07-13T13:21:54;3.63;;;0.75;;
75700;SDS011;64321;48.796;44.740;2023-07-13T13:26:57;4.07;;;0.77;;
75700;SDS011;64321;48.796;44.740;2023-07-13T13:32:00;4.75;;;1.02;;
75700;SDS011;64321;48.796;44.740;2023-07-13T13:37:02;1.95;;;0.82;;
75700;SDS011;64321;48.796;44.740;2023-07-13T13:42:04;1.98;;;0.90;;
75700;SDS011;64321;48.796;44.740;2023-07-13T13:47:10;1.92;;;0.65;;
75700;SDS011;64321;48.796;44.740;2023-07-13T13:52:19;3.13;;;1.00;;
75700;SDS011;64321;48.796;44.740;2023-07-13T13:57:24;2.08;;;0.73;;
75700;SDS011;64321;48.796;44.740;2023-07-13T14:02:29;3.95;;;0.82;;
75700;SDS011;64321;48.796;44.740;2023-07-13T14:07:33;3.05;;;0.88;;
75700;SDS011;64321;48.796;44.740;2023-07-13T14:12:35;1.50;;;0.73;;
75700;SDS011;64321;48.796;44.740;2023-07-13T14:17:37;2.40;;;0.65;;
75700;SDS011;64321;48.796;44.740;2023-07-13T14:22:45;3.47;;;0.63;;
75700;SDS011;64321;48.796;44.740;2023-07-13T14:27:49;1.25;;;0.50;;
75700;SDS011;64321;48.796;44.740;2023-07-13T14:32:52;2.28;;;0.82;;
75700;SDS011;64321;48.796;44.740;2023-07-13T14:37:54;1.77;;;0.75;;
75700;SDS011;64321;48.796;44.740;2023-07-13T14:42:57;3.80;;;1.15;;
75700;SDS011;64321;48.796;44.740;2023-07-13T14:47:59;3.83;;;1.23;;
75700;SDS011;64321;48.796;44.740;2023-07-13T14:53:02;1.98;;;0.77;;
75700;SDS011;64321;48.796;44.740;2023-07-13T14:58:04;2.33;;;1.05;;
75700;SDS011;64321;48.796;44.740;2023-07-13T15:03:08;3.83;;;0.93;;
75700;SDS011;64321;48.796;44.740;2023-07-13T15:08:21;4.07;;;0.85;;
75700;SDS011;64321;48.796;44.740;2023-07-13T15:13:23;2.97;;;1.25;;
75700;SDS011;64321;48.796;44.740;2023-07-13T15:18:26;2.75;;;1.40;;
75700;SDS011;64321;48.796;44.740;2023-07-13T15:23:29;4.70;;;1.67;;
75700;SDS011;64321;48.796;44.740;2023-07-13T15:28:31;3.88;;;1.52;;
75700;SDS011;64321;48.796;44.740;2023-07-13T15:33:33;3.88;;;1.85;;
75700;SDS011;64321;48.796;44.740;2023-07-13T15:38:38;3.35;;;1.40;;
75700;SDS011;64321;48.796;44.740;2023-07-13T15:43:40;6.63;;;1.23;;
75700;SDS011;64321;48.796;44.740;2023-07-13T15:48:42;4.80;;;1.30;;
75700;SDS011;64321;48.796;44.740;2023-07-13T15:53:47;2.90;;;1.13;;
75700;SDS011;64321;48.796;44.740;2023-07-13T15:58:52;4.45;;;1.23;;
75700;SDS011;64321;48.796;44.740;2023-07-13T16:03:54;4.50;;;1.80;;
75700;SDS011;64321;48.796;44.740;2023-07-13T16:08:57;12.68;;;4.75;;
75700;SDS011;64321;48.796;44.740;2023-07-13T16:13:59;11.43;;;3.88;;
75700;SDS011;64321;48.796;44.740;2023-07-13T16:19:03;8.55;;;2.17;;
75700;SDS011;64321;48.796;44.740;2023-07-13T16:24:08;5.28;;;1.15;;
75700;SDS011;64321;48.796;44.740;2023-07-13T16:29:17;5.35;;;1.23;;
75700;SDS011;64321;48.796;44.740;2023-07-13T16:34:20;4.38;;;1.58;;
75700;SDS011;64321;48.796;44.740;2023-07-13T16:39:22;3.65;;;1.38;;
75700;SDS011;64321;48.796;44.740;2023-07-13T16:44:27;4.55;;;1.75;;
75700;SDS011;64321;48.796;44.740;2023-07-13T16:49:31;4.78;;;1.65;;
75700;SDS011;64321;48.796;44.740;2023-07-13T16:54:36;5.68;;;2.03;;
75700;SDS011;64321;48.796;44.740;2023-07-13T16:59:39;6.38;;;1.60;;
75700;SDS011;64321;48.796;44.740;2023-07-13T17:04:42;10.63;;;3.30;;
75700;SDS011;64321;48.796;44.740;2023-07-13T17:09:44;7.18;;;3.83;;
75700;SDS011;64321;48.796;44.740;2023-07-13T17:14:47;7.43;;;2.75;;
75700;SDS011;64321;48.796;44.740;2023-07-13T17:19:50;8.07;;;2.92;;
75700;SDS011;64321;48.796;44.740;2023-07-13T17:24:53;7.72;;;2.80;;
75700;SDS011;64321;48.796;44.740;2023-07-13T17:29:59;9.68;;;3.33;;
75700;SDS011;64321;48.796;44.740;2023-07-13T17:35:09;14.80;;;6.88;;
75700;SDS011;64321;48.796;44.740;2023-07-13T17:40:16;15.02;;;7.35;;
75700;SDS011;64321;48.796;44.740;2023-07-13T17:45:21;16.13;;;7.03;;
75700;SDS011;64321;48.796;44.740;2023-07-13T17:55:38;9.55;;;4.90;;
75700;SDS011;64321;48.796;44.740;2023-07-13T18:00:41;9.25;;;3.55;;
75700;SDS011;64321;48.796;44.740;2023-07-13T18:05:46;9.20;;;3.33;;
75700;SDS011;64321;48.796;44.740;2023-07-13T18:10:48;9.38;;;3.63;;
75700;SDS011;64321;48.796;44.740;2023-07-13T18:15:51;7.95;;;3.38;;
75700;SDS011;64321;48.796;44.740;2023-07-13T18:20:55;10.07;;;2.65;;
75700;SDS011;64321;48.796;44.740;2023-07-13T18:25:57;4.45;;;1.85;;
75700;SDS011;64321;48.796;44.740;2023-07-13T18:30:59;6.55;;;2.42;;
75700;SDS011;64321;48.796;44.740;2023-07-13T18:36:03;6.43;;;1.65;;
75700;SDS011;64321;48.796;44.740;2023-07-13T18:41:08;6.32;;;2.05;;
75700;SDS011;64321;48.796;44.740;2023-07-13T18:46:16;12.77;;;4.93;;
75700;SDS011;64321;48.796;44.740;2023-07-13T18:51:19;15.88;;;6.60;;
75700;SDS011;64321;48.796;44.740;2023-07-13T18:56:24;17.55;;;6.40;;
75700;SDS011;64321;48.796;44.740;2023-07-13T19:01:29;14.02;;;4.43;;
75700;SDS011;64321;48.796;44.740;2023-07-13T19:06:31;10.68;;;4.55;;
75700;SDS011;64321;48.796;44.740;2023-07-13T19:11:34;12.70;;;5.05;;
75700;SDS011;64321;48.796;44.740;2023-07-13T19:16:36;8.38;;;3.33;;
75700;SDS011;64321;48.796;44.740;2023-07-13T19:21:40;10.38;;;3.83;;
75700;SDS011;64321;48.796;44.740;2023-07-13T19:26:43;8.55;;;3.35;;
75700;SDS011;64321;48.796;44.740;2023-07-13T19:31:46;8.82;;;4.00;;
75700;SDS011;64321;48.796;44.740;2023-07-13T19:36:51;7.80;;;4.28;;
75700;SDS011;64321;48.796;44.740;2023-07-13T19:41:56;7.95;;;3.33;;
75700;SDS011;64321;48.796;44.740;2023-07-13T19:46:59;6.35;;;2.75;;
75700;SDS011;64321;48.796;44.740;2023-07-13T19:52:02;14.52;;;4.53;;
75700;SDS011;64321;48.796;44.740;2023-07-13T19:57:05;9.95;;;4.88;;
75700;SDS011;64321;48.796;44.740;2023-07-13T20:02:08;11.73;;;4.57;;
75700;SDS011;64321;48.796;44.740;2023-07-13T20:07:17;12.98;;;4.35;;
75700;SDS011;64321;48.796;44.740;2023-07-13T20:12:21;9.30;;;3.35;;
75700;SDS011;64321;48.796;44.740;2023-07-13T20:17:28;8.85;;;3.20;;
75700;SDS011;64321;48.796;44.740;2023-07-13T20:22:32;5.03;;;2.40;;
75700;SDS011;64321;48.796;44.740;2023-07-13T20:27:35;7.07;;;2.63;;
75700;SDS011;64321;48.796;44.740;2023-07-13T20:32:37;9.35;;;2.92;;
75700;SDS011;64321;48.796;44.740;2023-07-13T20:37:39;8.55;;;2.53;;
75700;SDS011;64321;48.796;44.740;2023-07-13T20:42:44;9.25;;;3.17;;
75700;SDS011;64321;48.796;44.740;2023-07-13T20:47:47;7.80;;;3.83;;
75700;SDS011;64321;48.796;44.740;2023-07-13T20:52:52;15.68;;;4.57;;
75700;SDS011;64321;48.796;44.740;2023-07-13T20:57:54;10.95;;;3.80;;
75700;SDS011;64321;48.796;44.740;2023-07-13T21:03:00;6.65;;;3.00;;
75700;SDS011;64321;48.796;44.740;2023-07-13T21:08:04;7.07;;;3.58;;
75700;SDS011;64321;48.796;44.740;2023-07-13T21:13:13;6.43;;;2.90;;
75700;SDS011;64321;48.796;44.740;2023-07-13T21:18:23;5.63;;;2.75;;
75700;SDS011;64321;48.796;44.740;2023-07-13T21:28:35;7.10;;;3.33;;
75700;SDS011;64321;48.796;44.740;2023-07-13T21:33:38;6.95;;;4.03;;
75700;SDS011;64321;48.796;44.740;2023-07-13T21:38:41;6.82;;;2.92;;
75700;SDS011;64321;48.796;44.740;2023-07-13T21:43:44;7.18;;;2.70;;
75700;SDS011;64321;48.796;44.740;2023-07-13T21:48:46;7.18;;;2.65;;
75700;SDS011;64321;48.796;44.740;2023-07-13T21:53:49;9.27;;;2.85;;
75700;SDS011;64321;48.796;44.740;2023-07-13T21:58:51;6.63;;;2.80;;
75700;SDS011;64321;48.796;44.740;2023-07-13T22:03:55;7.88;;;2.83;;
75700;SDS011;64321;48.796;44.740;2023-07-13T22:08:57;6.55;;;2.75;;
75700;SDS011;64321;48.796;44.740;2023-07-13T22:13:59;8.45;;;2.45;;
75700;SDS011;64321;48.796;44.740;2023-07-13T22:19:05;7.28;;;2.63;;
75700;SDS011;64321;48.796;44.740;2023-07-13T22:24:12;8.20;;;2.58;;
75700;SDS011;64321;48.796;44.740;2023-07-13T22:29:16;7.00;;;2.97;;
75700;SDS011;64321;48.796;44.740;2023-07-13T22:34:19;7.05;;;2.83;;
75700;SDS011;64321;48.796;44.740;2023-07-13T22:39:26;7.35;;;2.75;;
75700;SDS011;64321;48.796;44.740;2023-07-13T22:44:28;6.65;;;2.58;;
75700;SDS011;64321;48.796;44.740;2023-07-13T22:49:32;3.92;;;2.03;;
75700;SDS011;64321;48.796;44.740;2023-07-13T22:54:34;3.85;;;2.65;;
75700;SDS011;64321;48.796;44.740;2023-07-13T22:59:36;6.57;;;2.85;;
75700;SDS011;64321;48.796;44.740;2023-07-13T23:04:39;6.38;;;2.63;;
75700;SDS011;64321;48.796;44.740;2023-07-13T23:09:41;5.22;;;2.00;;
75700;SDS011;64321;48.796;44.740;2023-07-13T23:15:04;7.13;;;2.17;;
75700;SDS011;64321;48.796;44.740;2023-07-13T23:20:29;6.35;;;2.40;;
75700;SDS011;64321;48.796;44.740;2023-07-13T23:25:30;4.82;;;2.10;;
75700;SDS011;64321;48.796;44.740;2023-07-13T23:30:35;6.85;;;2.20;;
75700;SDS011;64321;48.796;44.740;2023-07-13T23:35:37;5.22;;;2.08;;
75700;SDS011;64321;48.796;44.740;2023-07-13T23:40:39;5.50;;;2.00;;
75700;SDS011;64321;48.796;44.740;2023-07-13T23:45:42;8.15;;;2.03;;
75700;SDS011;64321;48.796;44.740;2023-07-13T23:50:44;4.63;;;2.20;;
75700;SDS011;64321;48.796;44.740;2023-07-13T23:55:46;5.03;;;2.00;;
